Pagina principale
METAR-TAF:

METAR-TAF

Aeroporti :

Aeroporto di Carcassonne Salvaza

Carcassonne, Francia

latitudine: 43-13N, longitudine: 002-19E, altezza: 130 m

Osservazione

Il bollettino è stato emesso 29 minuti fa, alle 12:00 UTC
Vento 24 kt da est
Temperature 33°C
Umidità 32%
Pressione 1019 hPa
Visibilità 10 km o più
nessuna nube inferiore a 1500 m e nessun cumulonembo

METAR: LFMK 261200Z AUTO 08024KT CAVOK 33/14 Q1019 TEMPO 09020G35KT

Ora: 14:29 (12:29 UTC)

Previsione

Il bollettino è stato emesso 4 ore e 29 minuti fa, alle 08:00 UTC
Previsione valida dal 26 alle 09 UTC al 27 alle 09 UTC
Vento 16 kt da est
Visibilità 10 km o più
nessuna nube inferiore a 1500 m e nessun cumulonembo
Temporaneamente
dal 26 alle 09 UTC al 26 alle 19 UTC
Vento 20 kt da est con raffiche fino a 35 kt

TAF: LFMK 260800Z 2609/2709 09016KT CAVOK TEMPO 2609/2619 09020G35KT

Osservazioni e previsioni meteorologiche di più di 4000 aeroporti (messaggi METAR e TAF).

Le stazioni disponibili sono rappresentate dai dischi gialli e rossi sulla carta.

Puntare il mouse per vedere il nome della stazione.

Clicca sopra per visualizzare le osservazioni e previsioni meteorologiche.

Per cambiare la mappa : fare clic sui pulsanti verdi con una croce nera per ingrandire, il pulsante verde con un trattino per diminuire, o sulla freccia verde per le mappe adiacenti.


METAR-TAF: